TAF and METAR

Decoding for American and Canadian METARs and TAFs is not fully implemented.

Could not understand the following METAR

KGDP 010951Z AUTO 06027G37KT 10SM SCT065 02/M13 A3010 RMK AO2 PK WND 05039/0934 SLP157 T00221128 $
No TAF available for Guadalupe Pass
Guadalupe Pass in United States of America at 1692m

Latest 5 airports